sensor_id;sensor_type;location;lat;lon;timestamp;P1;durP1;ratioP1;P2;durP2;ratioP2
18214;SDS011;9233;51.312;6.512;2022-12-05T00:02:07;20.20;;;9.73;;
18214;SDS011;9233;51.312;6.512;2022-12-05T00:04:54;21.93;;;9.07;;
18214;SDS011;9233;51.312;6.512;2022-12-05T00:07:40;18.60;;;9.33;;
18214;SDS011;9233;51.312;6.512;2022-12-05T00:10:27;23.07;;;9.90;;
18214;SDS011;9233;51.312;6.512;2022-12-05T00:13:13;21.17;;;9.57;;
18214;SDS011;9233;51.312;6.512;2022-12-05T00:16:00;20.93;;;10.40;;
18214;SDS011;9233;51.312;6.512;2022-12-05T00:18:48;19.07;;;10.07;;
18214;SDS011;9233;51.312;6.512;2022-12-05T00:21:35;20.37;;;9.63;;
18214;SDS011;9233;51.312;6.512;2022-12-05T00:24:22;18.50;;;9.57;;
18214;SDS011;9233;51.312;6.512;2022-12-05T00:27:08;22.03;;;10.00;;
18214;SDS011;9233;51.312;6.512;2022-12-05T00:29:55;23.60;;;10.70;;
18214;SDS011;9233;51.312;6.512;2022-12-05T00:32:41;21.33;;;10.20;;
18214;SDS011;9233;51.312;6.512;2022-12-05T00:35:29;20.43;;;9.83;;
18214;SDS011;9233;51.312;6.512;2022-12-05T00:38:18;20.43;;;9.30;;
18214;SDS011;9233;51.312;6.512;2022-12-05T00:41:05;21.67;;;9.20;;
18214;SDS011;9233;51.312;6.512;2022-12-05T00:43:53;22.60;;;10.37;;
18214;SDS011;9233;51.312;6.512;2022-12-05T00:46:40;23.63;;;10.00;;
18214;SDS011;9233;51.312;6.512;2022-12-05T00:49:27;19.53;;;9.57;;
18214;SDS011;9233;51.312;6.512;2022-12-05T00:52:15;20.73;;;9.93;;
18214;SDS011;9233;51.312;6.512;2022-12-05T00:55:02;20.23;;;9.57;;
18214;SDS011;9233;51.312;6.512;2022-12-05T00:57:48;20.53;;;9.87;;
18214;SDS011;9233;51.312;6.512;2022-12-05T01:00:35;20.93;;;9.87;;
18214;SDS011;9233;51.312;6.512;2022-12-05T01:03:21;24.90;;;11.10;;
18214;SDS011;9233;51.312;6.512;2022-12-05T01:06:08;21.67;;;10.10;;
18214;SDS011;9233;51.312;6.512;2022-12-05T01:08:57;21.60;;;9.80;;
18214;SDS011;9233;51.312;6.512;2022-12-05T01:11:44;20.53;;;9.97;;
18214;SDS011;9233;51.312;6.512;2022-12-05T01:14:30;20.37;;;10.37;;
18214;SDS011;9233;51.312;6.512;2022-12-05T01:17:17;25.00;;;10.37;;
18214;SDS011;9233;51.312;6.512;2022-12-05T01:20:04;20.10;;;10.40;;
18214;SDS011;9233;51.312;6.512;2022-12-05T01:22:52;23.90;;;10.27;;
18214;SDS011;9233;51.312;6.512;2022-12-05T01:25:40;22.93;;;10.77;;
18214;SDS011;9233;51.312;6.512;2022-12-05T01:28:28;23.20;;;10.23;;
18214;SDS011;9233;51.312;6.512;2022-12-05T01:31:16;19.90;;;10.17;;
18214;SDS011;9233;51.312;6.512;2022-12-05T01:34:05;24.93;;;11.30;;
18214;SDS011;9233;51.312;6.512;2022-12-05T01:36:53;20.97;;;9.23;;
18214;SDS011;9233;51.312;6.512;2022-12-05T01:39:39;20.40;;;10.17;;
18214;SDS011;9233;51.312;6.512;2022-12-05T01:42:28;18.67;;;9.63;;
18214;SDS011;9233;51.312;6.512;2022-12-05T01:45:15;24.07;;;10.43;;
18214;SDS011;9233;51.312;6.512;2022-12-05T01:48:04;17.80;;;9.53;;
18214;SDS011;9233;51.312;6.512;2022-12-05T01:50:51;23.43;;;10.23;;
18214;SDS011;9233;51.312;6.512;2022-12-05T01:53:39;21.00;;;10.40;;
18214;SDS011;9233;51.312;6.512;2022-12-05T01:56:25;19.50;;;9.57;;
18214;SDS011;9233;51.312;6.512;2022-12-05T01:59:13;20.07;;;10.17;;
18214;SDS011;9233;51.312;6.512;2022-12-05T02:02:00;21.87;;;10.33;;
18214;SDS011;9233;51.312;6.512;2022-12-05T02:04:47;19.60;;;9.67;;
18214;SDS011;9233;51.312;6.512;2022-12-05T02:07:37;16.40;;;9.57;;
18214;SDS011;9233;51.312;6.512;2022-12-05T02:10:25;20.47;;;9.37;;
18214;SDS011;9233;51.312;6.512;2022-12-05T02:13:22;21.03;;;9.83;;
18214;SDS011;9233;51.312;6.512;2022-12-05T02:16:31;21.63;;;9.33;;
18214;SDS011;9233;51.312;6.512;2022-12-05T02:19:32;20.60;;;9.63;;
18214;SDS011;9233;51.312;6.512;2022-12-05T02:22:34;24.00;;;10.57;;
18214;SDS011;9233;51.312;6.512;2022-12-05T02:25:41;18.57;;;9.43;;
18214;SDS011;9233;51.312;6.512;2022-12-05T02:29:03;18.80;;;9.17;;
18214;SDS011;9233;51.312;6.512;2022-12-05T02:32:03;17.20;;;8.73;;
18214;SDS011;9233;51.312;6.512;2022-12-05T02:34:53;19.27;;;9.30;;
18214;SDS011;9233;51.312;6.512;2022-12-05T02:37:44;19.70;;;8.80;;
18214;SDS011;9233;51.312;6.512;2022-12-05T02:40:38;17.60;;;8.80;;
18214;SDS011;9233;51.312;6.512;2022-12-05T02:43:28;17.97;;;9.20;;
18214;SDS011;9233;51.312;6.512;2022-12-05T02:46:17;17.97;;;9.10;;
18214;SDS011;9233;51.312;6.512;2022-12-05T02:49:08;20.17;;;9.57;;
18214;SDS011;9233;51.312;6.512;2022-12-05T02:51:57;15.57;;;8.33;;
18214;SDS011;9233;51.312;6.512;2022-12-05T02:54:45;18.07;;;9.20;;
18214;SDS011;9233;51.312;6.512;2022-12-05T02:57:33;18.53;;;9.43;;
18214;SDS011;9233;51.312;6.512;2022-12-05T03:00:21;19.70;;;9.40;;
18214;SDS011;9233;51.312;6.512;2022-12-05T03:03:10;19.80;;;9.67;;
18214;SDS011;9233;51.312;6.512;2022-12-05T03:06:02;20.53;;;9.77;;
18214;SDS011;9233;51.312;6.512;2022-12-05T03:08:51;23.67;;;10.30;;
18214;SDS011;9233;51.312;6.512;2022-12-05T03:11:40;19.97;;;9.93;;
18214;SDS011;9233;51.312;6.512;2022-12-05T03:14:30;19.10;;;9.57;;
18214;SDS011;9233;51.312;6.512;2022-12-05T03:17:21;19.10;;;9.37;;
18214;SDS011;9233;51.312;6.512;2022-12-05T03:20:10;18.43;;;8.70;;
18214;SDS011;9233;51.312;6.512;2022-12-05T03:23:02;18.60;;;9.30;;
18214;SDS011;9233;51.312;6.512;2022-12-05T03:25:53;18.43;;;9.70;;
18214;SDS011;9233;51.312;6.512;2022-12-05T03:28:45;19.73;;;9.53;;
18214;SDS011;9233;51.312;6.512;2022-12-05T03:31:38;18.70;;;9.07;;
18214;SDS011;9233;51.312;6.512;2022-12-05T03:34:28;17.77;;;9.50;;
18214;SDS011;9233;51.312;6.512;2022-12-05T03:37:24;18.90;;;9.10;;
18214;SDS011;9233;51.312;6.512;2022-12-05T03:40:17;27.53;;;10.37;;
18214;SDS011;9233;51.312;6.512;2022-12-05T03:43:09;18.37;;;9.77;;
18214;SDS011;9233;51.312;6.512;2022-12-05T03:46:02;20.73;;;9.90;;
18214;SDS011;9233;51.312;6.512;2022-12-05T03:48:51;20.77;;;9.77;;
18214;SDS011;9233;51.312;6.512;2022-12-05T03:51:40;21.60;;;10.53;;
18214;SDS011;9233;51.312;6.512;2022-12-05T03:54:32;24.30;;;10.77;;
18214;SDS011;9233;51.312;6.512;2022-12-05T03:57:23;20.87;;;9.17;;
18214;SDS011;9233;51.312;6.512;2022-12-05T04:00:13;20.10;;;9.77;;
18214;SDS011;9233;51.312;6.512;2022-12-05T04:03:03;21.63;;;10.07;;
18214;SDS011;9233;51.312;6.512;2022-12-05T04:05:53;22.67;;;9.57;;
18214;SDS011;9233;51.312;6.512;2022-12-05T04:08:42;20.70;;;9.47;;
18214;SDS011;9233;51.312;6.512;2022-12-05T04:11:33;21.80;;;10.23;;
18214;SDS011;9233;51.312;6.512;2022-12-05T04:14:24;21.77;;;10.50;;
18214;SDS011;9233;51.312;6.512;2022-12-05T04:17:13;21.23;;;10.70;;
18214;SDS011;9233;51.312;6.512;2022-12-05T04:20:03;20.00;;;9.80;;
18214;SDS011;9233;51.312;6.512;2022-12-05T04:23:12;21.10;;;9.37;;
18214;SDS011;9233;51.312;6.512;2022-12-05T04:26:01;21.53;;;10.10;;
18214;SDS011;9233;51.312;6.512;2022-12-05T04:28:53;19.40;;;9.57;;
18214;SDS011;9233;51.312;6.512;2022-12-05T04:31:46;22.90;;;10.30;;
18214;SDS011;9233;51.312;6.512;2022-12-05T04:34:35;20.97;;;9.43;;
18214;SDS011;9233;51.312;6.512;2022-12-05T04:37:23;22.03;;;9.93;;
18214;SDS011;9233;51.312;6.512;2022-12-05T04:40:11;21.93;;;10.57;;
18214;SDS011;9233;51.312;6.512;2022-12-05T04:43:00;20.23;;;9.20;;
18214;SDS011;9233;51.312;6.512;2022-12-05T04:45:47;17.10;;;8.97;;
18214;SDS011;9233;51.312;6.512;2022-12-05T04:48:37;18.93;;;9.17;;
18214;SDS011;9233;51.312;6.512;2022-12-05T04:51:25;18.63;;;8.73;;
18214;SDS011;9233;51.312;6.512;2022-12-05T04:54:16;21.17;;;9.33;;
18214;SDS011;9233;51.312;6.512;2022-12-05T04:57:06;19.60;;;9.53;;
18214;SDS011;9233;51.312;6.512;2022-12-05T04:59:56;17.77;;;8.13;;
18214;SDS011;9233;51.312;6.512;2022-12-05T05:02:43;19.87;;;9.63;;
18214;SDS011;9233;51.312;6.512;2022-12-05T05:05:34;22.87;;;9.93;;
18214;SDS011;9233;51.312;6.512;2022-12-05T05:08:22;20.27;;;9.93;;
18214;SDS011;9233;51.312;6.512;2022-12-05T05:11:10;17.43;;;8.77;;
18214;SDS011;9233;51.312;6.512;2022-12-05T05:13:58;20.80;;;9.83;;
18214;SDS011;9233;51.312;6.512;2022-12-05T05:16:45;23.97;;;10.13;;
18214;SDS011;9233;51.312;6.512;2022-12-05T05:19:32;24.00;;;8.33;;
18214;SDS011;9233;51.312;6.512;2022-12-05T05:22:20;15.57;;;6.60;;
18214;SDS011;9233;51.312;6.512;2022-12-05T05:25:07;14.90;;;7.73;;
18214;SDS011;9233;51.312;6.512;2022-12-05T05:27:54;16.57;;;8.67;;
18214;SDS011;9233;51.312;6.512;2022-12-05T05:30:41;20.10;;;9.00;;
18214;SDS011;9233;51.312;6.512;2022-12-05T05:33:28;19.83;;;9.77;;
18214;SDS011;9233;51.312;6.512;2022-12-05T05:36:14;20.47;;;10.30;;
18214;SDS011;9233;51.312;6.512;2022-12-05T05:39:03;20.43;;;9.70;;
18214;SDS011;9233;51.312;6.512;2022-12-05T05:41:50;20.03;;;9.47;;
18214;SDS011;9233;51.312;6.512;2022-12-05T05:44:37;22.40;;;9.53;;
18214;SDS011;9233;51.312;6.512;2022-12-05T05:47:23;17.83;;;9.67;;
18214;SDS011;9233;51.312;6.512;2022-12-05T05:50:10;18.47;;;8.67;;
18214;SDS011;9233;51.312;6.512;2022-12-05T05:52:57;18.87;;;9.27;;
18214;SDS011;9233;51.312;6.512;2022-12-05T05:55:45;20.33;;;9.37;;
18214;SDS011;9233;51.312;6.512;2022-12-05T05:58:31;15.03;;;8.30;;
18214;SDS011;9233;51.312;6.512;2022-12-05T06:01:18;15.93;;;8.20;;
18214;SDS011;9233;51.312;6.512;2022-12-05T06:04:05;15.93;;;8.27;;
18214;SDS011;9233;51.312;6.512;2022-12-05T06:06:52;15.33;;;8.17;;
18214;SDS011;9233;51.312;6.512;2022-12-05T06:09:39;14.17;;;7.53;;
18214;SDS011;9233;51.312;6.512;2022-12-05T06:12:26;15.53;;;7.60;;
18214;SDS011;9233;51.312;6.512;2022-12-05T06:15:13;17.00;;;7.70;;
18214;SDS011;9233;51.312;6.512;2022-12-05T06:18:00;18.60;;;8.70;;
18214;SDS011;9233;51.312;6.512;2022-12-05T06:20:50;17.03;;;7.87;;
18214;SDS011;9233;51.312;6.512;2022-12-05T06:23:37;17.27;;;8.70;;
18214;SDS011;9233;51.312;6.512;2022-12-05T06:26:24;19.67;;;8.93;;
18214;SDS011;9233;51.312;6.512;2022-12-05T06:29:12;15.77;;;8.43;;
18214;SDS011;9233;51.312;6.512;2022-12-05T06:31:59;14.87;;;7.57;;
18214;SDS011;9233;51.312;6.512;2022-12-05T06:34:46;16.07;;;7.87;;
18214;SDS011;9233;51.312;6.512;2022-12-05T06:37:34;16.13;;;8.13;;
18214;SDS011;9233;51.312;6.512;2022-12-05T06:40:21;15.43;;;8.47;;
18214;SDS011;9233;51.312;6.512;2022-12-05T06:43:08;14.50;;;7.93;;
18214;SDS011;9233;51.312;6.512;2022-12-05T06:45:55;17.10;;;8.23;;
18214;SDS011;9233;51.312;6.512;2022-12-05T06:48:42;16.77;;;8.67;;
18214;SDS011;9233;51.312;6.512;2022-12-05T06:51:29;17.80;;;9.10;;
18214;SDS011;9233;51.312;6.512;2022-12-05T06:54:15;15.40;;;8.10;;
18214;SDS011;9233;51.312;6.512;2022-12-05T06:57:02;17.47;;;8.50;;
18214;SDS011;9233;51.312;6.512;2022-12-05T06:59:49;17.23;;;8.93;;
18214;SDS011;9233;51.312;6.512;2022-12-05T07:02:37;16.10;;;9.40;;
18214;SDS011;9233;51.312;6.512;2022-12-05T07:05:22;18.10;;;8.73;;
18214;SDS011;9233;51.312;6.512;2022-12-05T07:08:09;15.87;;;8.57;;
18214;SDS011;9233;51.312;6.512;2022-12-05T07:10:55;18.53;;;8.53;;
18214;SDS011;9233;51.312;6.512;2022-12-05T07:13:42;17.47;;;9.03;;
18214;SDS011;9233;51.312;6.512;2022-12-05T07:16:29;18.57;;;8.63;;
18214;SDS011;9233;51.312;6.512;2022-12-05T07:19:17;17.50;;;7.97;;
18214;SDS011;9233;51.312;6.512;2022-12-05T07:22:03;17.00;;;8.00;;
18214;SDS011;9233;51.312;6.512;2022-12-05T07:24:50;16.33;;;7.83;;
18214;SDS011;9233;51.312;6.512;2022-12-05T07:27:37;15.13;;;8.13;;
18214;SDS011;9233;51.312;6.512;2022-12-05T07:30:23;14.40;;;8.03;;
18214;SDS011;9233;51.312;6.512;2022-12-05T07:33:10;15.70;;;7.10;;
18214;SDS011;9233;51.312;6.512;2022-12-05T07:36:02;15.30;;;7.67;;
18214;SDS011;9233;51.312;6.512;2022-12-05T07:38:53;15.73;;;7.77;;
18214;SDS011;9233;51.312;6.512;2022-12-05T07:41:41;15.37;;;7.97;;
18214;SDS011;9233;51.312;6.512;2022-12-05T07:44:27;17.47;;;7.43;;
18214;SDS011;9233;51.312;6.512;2022-12-05T07:47:15;12.23;;;6.93;;
18214;SDS011;9233;51.312;6.512;2022-12-05T07:50:01;14.40;;;7.53;;
18214;SDS011;9233;51.312;6.512;2022-12-05T07:52:49;14.97;;;7.00;;
18214;SDS011;9233;51.312;6.512;2022-12-05T07:55:36;13.30;;;7.07;;
18214;SDS011;9233;51.312;6.512;2022-12-05T07:58:23;13.30;;;7.13;;
18214;SDS011;9233;51.312;6.512;2022-12-05T08:01:10;13.73;;;7.00;;
18214;SDS011;9233;51.312;6.512;2022-12-05T08:03:58;13.30;;;6.90;;
18214;SDS011;9233;51.312;6.512;2022-12-05T08:06:45;11.50;;;6.87;;
18214;SDS011;9233;51.312;6.512;2022-12-05T08:09:33;13.07;;;7.13;;
18214;SDS011;9233;51.312;6.512;2022-12-05T08:12:19;12.70;;;7.17;;
18214;SDS011;9233;51.312;6.512;2022-12-05T08:15:06;13.43;;;7.13;;
18214;SDS011;9233;51.312;6.512;2022-12-05T08:17:54;12.57;;;7.03;;
18214;SDS011;9233;51.312;6.512;2022-12-05T08:20:40;13.80;;;6.87;;
18214;SDS011;9233;51.312;6.512;2022-12-05T08:23:27;10.27;;;6.07;;
18214;SDS011;9233;51.312;6.512;2022-12-05T08:26:16;14.27;;;6.90;;
18214;SDS011;9233;51.312;6.512;2022-12-05T08:29:05;11.37;;;6.30;;
18214;SDS011;9233;51.312;6.512;2022-12-05T08:31:53;11.53;;;5.97;;
18214;SDS011;9233;51.312;6.512;2022-12-05T08:34:40;12.53;;;6.80;;
18214;SDS011;9233;51.312;6.512;2022-12-05T08:37:26;10.13;;;6.07;;
18214;SDS011;9233;51.312;6.512;2022-12-05T08:40:13;11.13;;;6.57;;
18214;SDS011;9233;51.312;6.512;2022-12-05T08:43:01;12.30;;;6.53;;
18214;SDS011;9233;51.312;6.512;2022-12-05T08:45:48;10.63;;;6.73;;
18214;SDS011;9233;51.312;6.512;2022-12-05T08:48:35;11.80;;;5.83;;
18214;SDS011;9233;51.312;6.512;2022-12-05T08:51:21;9.43;;;5.60;;
18214;SDS011;9233;51.312;6.512;2022-12-05T08:54:08;10.37;;;5.67;;
18214;SDS011;9233;51.312;6.512;2022-12-05T08:56:55;11.00;;;5.70;;
18214;SDS011;9233;51.312;6.512;2022-12-05T08:59:44;9.17;;;6.00;;
18214;SDS011;9233;51.312;6.512;2022-12-05T09:02:31;10.57;;;5.63;;
18214;SDS011;9233;51.312;6.512;2022-12-05T09:05:18;9.37;;;5.30;;
18214;SDS011;9233;51.312;6.512;2022-12-05T09:08:04;13.43;;;6.17;;
18214;SDS011;9233;51.312;6.512;2022-12-05T09:10:51;9.70;;;5.83;;
18214;SDS011;9233;51.312;6.512;2022-12-05T09:13:38;11.73;;;6.30;;
18214;SDS011;9233;51.312;6.512;2022-12-05T09:16:27;10.33;;;5.90;;
18214;SDS011;9233;51.312;6.512;2022-12-05T09:19:15;10.07;;;5.87;;
18214;SDS011;9233;51.312;6.512;2022-12-05T09:22:04;10.20;;;5.63;;
18214;SDS011;9233;51.312;6.512;2022-12-05T09:24:51;11.60;;;6.00;;
18214;SDS011;9233;51.312;6.512;2022-12-05T09:27:38;8.80;;;5.50;;
18214;SDS011;9233;51.312;6.512;2022-12-05T09:30:24;10.30;;;5.70;;
18214;SDS011;9233;51.312;6.512;2022-12-05T09:33:12;8.23;;;5.23;;
18214;SDS011;9233;51.312;6.512;2022-12-05T09:36:00;9.50;;;5.87;;
18214;SDS011;9233;51.312;6.512;2022-12-05T09:38:47;10.33;;;5.10;;
18214;SDS011;9233;51.312;6.512;2022-12-05T09:41:39;8.67;;;5.20;;
18214;SDS011;9233;51.312;6.512;2022-12-05T09:44:55;9.23;;;5.43;;
18214;SDS011;9233;51.312;6.512;2022-12-05T09:47:49;8.77;;;5.27;;
18214;SDS011;9233;51.312;6.512;2022-12-05T09:50:43;11.53;;;5.30;;
18214;SDS011;9233;51.312;6.512;2022-12-05T09:53:30;8.53;;;5.17;;
18214;SDS011;9233;51.312;6.512;2022-12-05T09:56:20;9.07;;;5.40;;
18214;SDS011;9233;51.312;6.512;2022-12-05T09:59:10;8.47;;;4.90;;
18214;SDS011;9233;51.312;6.512;2022-12-05T10:02:00;8.00;;;5.03;;
18214;SDS011;9233;51.312;6.512;2022-12-05T10:04:53;11.30;;;5.97;;
18214;SDS011;9233;51.312;6.512;2022-12-05T10:07:45;8.20;;;5.03;;
18214;SDS011;9233;51.312;6.512;2022-12-05T10:10:38;11.43;;;5.50;;
18214;SDS011;9233;51.312;6.512;2022-12-05T10:13:41;9.33;;;4.83;;
18214;SDS011;9233;51.312;6.512;2022-12-05T10:16:31;9.73;;;5.87;;
18214;SDS011;9233;51.312;6.512;2022-12-05T10:19:21;8.40;;;5.50;;
18214;SDS011;9233;51.312;6.512;2022-12-05T10:22:12;9.30;;;5.70;;
18214;SDS011;9233;51.312;6.512;2022-12-05T10:25:02;7.50;;;4.93;;
18214;SDS011;9233;51.312;6.512;2022-12-05T10:27:51;8.40;;;4.97;;
18214;SDS011;9233;51.312;6.512;2022-12-05T10:30:38;8.97;;;5.27;;
18214;SDS011;9233;51.312;6.512;2022-12-05T10:33:32;7.33;;;4.63;;
18214;SDS011;9233;51.312;6.512;2022-12-05T10:36:23;7.07;;;4.73;;
18214;SDS011;9233;51.312;6.512;2022-12-05T10:39:10;8.50;;;4.80;;
18214;SDS011;9233;51.312;6.512;2022-12-05T10:41:58;8.30;;;4.70;;
18214;SDS011;9233;51.312;6.512;2022-12-05T10:44:44;7.03;;;4.40;;
18214;SDS011;9233;51.312;6.512;2022-12-05T10:47:31;7.70;;;4.70;;
18214;SDS011;9233;51.312;6.512;2022-12-05T10:50:21;7.77;;;5.00;;
18214;SDS011;9233;51.312;6.512;2022-12-05T10:53:11;8.70;;;5.07;;
18214;SDS011;9233;51.312;6.512;2022-12-05T10:56:00;8.07;;;5.07;;
18214;SDS011;9233;51.312;6.512;2022-12-05T10:58:54;8.97;;;5.47;;
18214;SDS011;9233;51.312;6.512;2022-12-05T11:01:45;7.83;;;4.90;;
18214;SDS011;9233;51.312;6.512;2022-12-05T11:04:40;7.87;;;5.27;;
18214;SDS011;9233;51.312;6.512;2022-12-05T11:07:29;7.80;;;4.80;;
18214;SDS011;9233;51.312;6.512;2022-12-05T11:10:21;7.73;;;4.90;;
18214;SDS011;9233;51.312;6.512;2022-12-05T11:13:13;6.87;;;4.57;;
18214;SDS011;9233;51.312;6.512;2022-12-05T11:16:01;8.17;;;4.20;;
18214;SDS011;9233;51.312;6.512;2022-12-05T11:18:48;5.67;;;4.13;;
18214;SDS011;9233;51.312;6.512;2022-12-05T11:21:40;6.20;;;4.13;;
18214;SDS011;9233;51.312;6.512;2022-12-05T11:24:28;7.37;;;4.50;;
18214;SDS011;9233;51.312;6.512;2022-12-05T11:27:19;7.70;;;4.73;;
18214;SDS011;9233;51.312;6.512;2022-12-05T11:30:14;9.20;;;4.00;;
18214;SDS011;9233;51.312;6.512;2022-12-05T11:33:16;6.07;;;3.77;;
18214;SDS011;9233;51.312;6.512;2022-12-05T11:36:09;6.63;;;4.00;;
18214;SDS011;9233;51.312;6.512;2022-12-05T11:38:58;6.97;;;4.43;;
18214;SDS011;9233;51.312;6.512;2022-12-05T11:41:49;7.57;;;4.67;;
18214;SDS011;9233;51.312;6.512;2022-12-05T11:44:45;7.20;;;4.70;;
18214;SDS011;9233;51.312;6.512;2022-12-05T11:51:02;7.60;;;4.40;;
18214;SDS011;9233;51.312;6.512;2022-12-05T11:54:27;7.93;;;4.87;;
18214;SDS011;9233;51.312;6.512;2022-12-05T11:57:26;6.10;;;4.30;;
18214;SDS011;9233;51.312;6.512;2022-12-05T12:00:20;9.00;;;5.27;;
18214;SDS011;9233;51.312;6.512;2022-12-05T12:06:27;7.33;;;4.60;;
18214;SDS011;9233;51.312;6.512;2022-12-05T12:09:31;7.90;;;5.17;;
18214;SDS011;9233;51.312;6.512;2022-12-05T12:12:24;9.60;;;4.93;;
18214;SDS011;9233;51.312;6.512;2022-12-05T12:15:18;8.03;;;4.70;;
18214;SDS011;9233;51.312;6.512;2022-12-05T12:18:16;9.63;;;4.93;;
18214;SDS011;9233;51.312;6.512;2022-12-05T12:21:13;9.07;;;5.43;;
18214;SDS011;9233;51.312;6.512;2022-12-05T12:24:06;12.00;;;7.57;;
18214;SDS011;9233;51.312;6.512;2022-12-05T12:27:00;10.83;;;6.40;;
18214;SDS011;9233;51.312;6.512;2022-12-05T12:29:53;9.13;;;5.30;;
18214;SDS011;9233;51.312;6.512;2022-12-05T12:32:49;7.60;;;4.73;;
18214;SDS011;9233;51.312;6.512;2022-12-05T12:35:43;7.83;;;4.50;;
18214;SDS011;9233;51.312;6.512;2022-12-05T12:38:43;8.87;;;5.50;;
18214;SDS011;9233;51.312;6.512;2022-12-05T12:45:07;6.40;;;4.43;;
18214;SDS011;9233;51.312;6.512;2022-12-05T12:48:12;6.10;;;4.10;;
18214;SDS011;9233;51.312;6.512;2022-12-05T12:51:03;7.47;;;4.70;;
18214;SDS011;9233;51.312;6.512;2022-12-05T12:53:53;5.13;;;3.70;;
18214;SDS011;9233;51.312;6.512;2022-12-05T12:56:51;5.70;;;4.13;;
18214;SDS011;9233;51.312;6.512;2022-12-05T12:59:48;5.13;;;3.53;;
18214;SDS011;9233;51.312;6.512;2022-12-05T13:02:42;6.10;;;4.20;;
18214;SDS011;9233;51.312;6.512;2022-12-05T13:05:31;5.83;;;4.10;;
18214;SDS011;9233;51.312;6.512;2022-12-05T13:08:23;8.17;;;5.27;;
18214;SDS011;9233;51.312;6.512;2022-12-05T13:11:13;7.73;;;5.07;;
18214;SDS011;9233;51.312;6.512;2022-12-05T13:14:01;9.87;;;5.60;;
18214;SDS011;9233;51.312;6.512;2022-12-05T13:16:50;17.33;;;10.27;;
18214;SDS011;9233;51.312;6.512;2022-12-05T13:19:39;16.07;;;8.67;;
18214;SDS011;9233;51.312;6.512;2022-12-05T13:22:27;11.60;;;5.93;;
18214;SDS011;9233;51.312;6.512;2022-12-05T13:25:14;8.57;;;4.93;;
18214;SDS011;9233;51.312;6.512;2022-12-05T13:28:03;7.67;;;4.47;;
18214;SDS011;9233;51.312;6.512;2022-12-05T13:30:50;14.90;;;9.30;;
18214;SDS011;9233;51.312;6.512;2022-12-05T13:33:47;25.57;;;14.53;;
18214;SDS011;9233;51.312;6.512;2022-12-05T13:36:37;16.50;;;9.10;;
18214;SDS011;9233;51.312;6.512;2022-12-05T13:39:47;10.17;;;6.20;;
18214;SDS011;9233;51.312;6.512;2022-12-05T13:42:58;10.07;;;5.43;;
18214;SDS011;9233;51.312;6.512;2022-12-05T13:46:00;6.80;;;4.77;;
18214;SDS011;9233;51.312;6.512;2022-12-05T13:48:49;6.33;;;4.50;;
18214;SDS011;9233;51.312;6.512;2022-12-05T13:51:44;5.43;;;4.20;;
18214;SDS011;9233;51.312;6.512;2022-12-05T13:54:31;5.60;;;3.87;;
18214;SDS011;9233;51.312;6.512;2022-12-05T14:00:33;6.33;;;4.40;;
18214;SDS011;9233;51.312;6.512;2022-12-05T14:09:48;8.97;;;5.43;;
18214;SDS011;9233;51.312;6.512;2022-12-05T14:12:44;7.53;;;5.13;;
18214;SDS011;9233;51.312;6.512;2022-12-05T14:15:34;8.00;;;4.87;;
18214;SDS011;9233;51.312;6.512;2022-12-05T14:18:22;5.97;;;4.47;;
18214;SDS011;9233;51.312;6.512;2022-12-05T14:21:15;7.70;;;4.77;;
18214;SDS011;9233;51.312;6.512;2022-12-05T14:24:05;5.93;;;4.30;;
18214;SDS011;9233;51.312;6.512;2022-12-05T14:26:54;4.87;;;3.97;;
18214;SDS011;9233;51.312;6.512;2022-12-05T14:29:54;5.40;;;4.13;;
18214;SDS011;9233;51.312;6.512;2022-12-05T14:32:44;5.63;;;3.63;;
18214;SDS011;9233;51.312;6.512;2022-12-05T14:35:39;4.50;;;3.27;;
18214;SDS011;9233;51.312;6.512;2022-12-05T14:38:28;5.63;;;3.43;;
18214;SDS011;9233;51.312;6.512;2022-12-05T14:41:30;4.37;;;3.27;;
18214;SDS011;9233;51.312;6.512;2022-12-05T14:44:18;4.20;;;3.10;;
18214;SDS011;9233;51.312;6.512;2022-12-05T14:47:05;4.23;;;3.03;;
18214;SDS011;9233;51.312;6.512;2022-12-05T14:49:53;5.67;;;3.67;;
18214;SDS011;9233;51.312;6.512;2022-12-05T14:52:42;4.50;;;3.20;;
18214;SDS011;9233;51.312;6.512;2022-12-05T14:55:30;4.37;;;3.30;;
18214;SDS011;9233;51.312;6.512;2022-12-05T14:58:18;4.63;;;3.23;;
18214;SDS011;9233;51.312;6.512;2022-12-05T15:01:07;5.63;;;3.80;;
18214;SDS011;9233;51.312;6.512;2022-12-05T15:04:05;7.23;;;3.97;;
18214;SDS011;9233;51.312;6.512;2022-12-05T15:07:03;5.77;;;3.40;;
18214;SDS011;9233;51.312;6.512;2022-12-05T15:10:03;6.83;;;4.20;;
18214;SDS011;9233;51.312;6.512;2022-12-05T15:12:54;6.73;;;4.13;;
18214;SDS011;9233;51.312;6.512;2022-12-05T15:15:45;8.17;;;4.00;;
18214;SDS011;9233;51.312;6.512;2022-12-05T15:18:36;8.63;;;4.17;;
18214;SDS011;9233;51.312;6.512;2022-12-05T15:21:25;4.23;;;3.33;;
18214;SDS011;9233;51.312;6.512;2022-12-05T15:24:15;6.03;;;3.67;;
18214;SDS011;9233;51.312;6.512;2022-12-05T15:27:04;5.13;;;3.53;;
18214;SDS011;9233;51.312;6.512;2022-12-05T15:29:53;7.90;;;4.40;;
18214;SDS011;9233;51.312;6.512;2022-12-05T15:32:40;5.77;;;3.57;;
18214;SDS011;9233;51.312;6.512;2022-12-05T15:35:27;5.63;;;3.47;;
18214;SDS011;9233;51.312;6.512;2022-12-05T15:38:18;6.00;;;4.10;;
18214;SDS011;9233;51.312;6.512;2022-12-05T15:41:08;6.50;;;4.03;;
18214;SDS011;9233;51.312;6.512;2022-12-05T15:44:01;3.90;;;3.43;;
18214;SDS011;9233;51.312;6.512;2022-12-05T15:46:52;6.23;;;3.47;;
18214;SDS011;9233;51.312;6.512;2022-12-05T15:49:42;4.80;;;3.40;;
18214;SDS011;9233;51.312;6.512;2022-12-05T15:52:29;4.83;;;3.30;;
18214;SDS011;9233;51.312;6.512;2022-12-05T15:55:19;4.60;;;3.27;;
18214;SDS011;9233;51.312;6.512;2022-12-05T15:58:08;4.10;;;3.30;;
18214;SDS011;9233;51.312;6.512;2022-12-05T16:01:00;15.33;;;7.87;;
18214;SDS011;9233;51.312;6.512;2022-12-05T16:03:52;10.87;;;5.30;;
18214;SDS011;9233;51.312;6.512;2022-12-05T16:06:41;8.43;;;4.67;;
18214;SDS011;9233;51.312;6.512;2022-12-05T16:09:29;6.17;;;3.93;;
18214;SDS011;9233;51.312;6.512;2022-12-05T16:12:19;4.63;;;3.20;;
18214;SDS011;9233;51.312;6.512;2022-12-05T16:15:10;4.70;;;3.10;;
18214;SDS011;9233;51.312;6.512;2022-12-05T16:18:01;4.53;;;2.97;;
18214;SDS011;9233;51.312;6.512;2022-12-05T16:20:51;4.93;;;3.20;;
18214;SDS011;9233;51.312;6.512;2022-12-05T16:23:38;4.27;;;3.20;;
18214;SDS011;9233;51.312;6.512;2022-12-05T16:26:27;5.00;;;3.00;;
18214;SDS011;9233;51.312;6.512;2022-12-05T16:29:24;3.90;;;3.17;;
18214;SDS011;9233;51.312;6.512;2022-12-05T16:32:14;3.80;;;3.10;;
18214;SDS011;9233;51.312;6.512;2022-12-05T16:38:19;3.63;;;2.87;;
18214;SDS011;9233;51.312;6.512;2022-12-05T16:41:06;4.57;;;3.20;;
18214;SDS011;9233;51.312;6.512;2022-12-05T16:43:53;4.27;;;3.20;;
18214;SDS011;9233;51.312;6.512;2022-12-05T16:46:43;5.30;;;3.37;;
18214;SDS011;9233;51.312;6.512;2022-12-05T16:49:31;4.33;;;3.10;;
18214;SDS011;9233;51.312;6.512;2022-12-05T16:52:19;3.83;;;3.20;;
18214;SDS011;9233;51.312;6.512;2022-12-05T16:55:10;4.67;;;3.27;;
18214;SDS011;9233;51.312;6.512;2022-12-05T16:57:58;4.93;;;3.50;;
18214;SDS011;9233;51.312;6.512;2022-12-05T17:00:47;5.17;;;3.80;;
18214;SDS011;9233;51.312;6.512;2022-12-05T17:03:34;5.13;;;3.43;;
18214;SDS011;9233;51.312;6.512;2022-12-05T17:06:21;3.60;;;2.90;;
18214;SDS011;9233;51.312;6.512;2022-12-05T17:09:09;5.23;;;3.60;;
18214;SDS011;9233;51.312;6.512;2022-12-05T17:11:58;5.37;;;3.33;;
18214;SDS011;9233;51.312;6.512;2022-12-05T17:14:48;5.37;;;3.70;;
18214;SDS011;9233;51.312;6.512;2022-12-05T17:17:34;5.00;;;3.73;;
18214;SDS011;9233;51.312;6.512;2022-12-05T17:20:21;3.73;;;3.13;;
18214;SDS011;9233;51.312;6.512;2022-12-05T17:23:09;4.37;;;3.00;;
18214;SDS011;9233;51.312;6.512;2022-12-05T17:25:57;4.23;;;2.93;;
18214;SDS011;9233;51.312;6.512;2022-12-05T17:28:46;4.67;;;3.20;;
18214;SDS011;9233;51.312;6.512;2022-12-05T17:31:41;4.47;;;3.53;;
18214;SDS011;9233;51.312;6.512;2022-12-05T17:34:37;4.67;;;3.07;;